Time,TemperatureF,DewpointF,PressureIn,WindDirection,WindDirectionDegrees,WindSpeedMPH,WindSpeedGustMPH,Humidity,HourlyPrecipIn,Conditions,Clouds,dailyrainin,SolarRadiationWatts/m^2,SoftwareType,DateUTC
2013-02-13 00:07:00,40.6,36.0,30.32,SSE,150,0.0,2.0,82,0.00,,,0.00,0,weatherlink.com 1.10,2013-02-13 08:07:00,
2013-02-13 00:22:00,39.3,35.0,30.32,SSE,150,0.0,2.0,83,0.00,,,0.00,0,weatherlink.com 1.10,2013-02-13 08:22:00,
2013-02-13 00:37:00,38.5,35.0,30.32,SSE,150,0.0,1.0,86,0.00,,,0.00,0,weatherlink.com 1.10,2013-02-13 08:37:00,
2013-02-13 00:52:00,37.4,33.0,30.32,SSE,150,0.0,0.0,84,0.00,,,0.00,0,weatherlink.com 1.10,2013-02-13 08:52:00,
2013-02-13 01:07:00,36.6,33.0,30.32,SSE,150,0.0,0.0,86,0.00,,,0.00,0,weatherlink.com 1.10,2013-02-13 09:07:00,
2013-02-13 01:22:00,36.2,33.0,30.32,SSE,150,0.0,0.0,88,0.00,,,0.00,0,weatherlink.com 1.10,2013-02-13 09:22:00,
2013-02-13 01:37:00,36.0,33.0,30.32,SSE,150,1.0,1.0,89,0.00,,,0.00,0,weatherlink.com 1.10,2013-02-13 09:37:00,
2013-02-13 01:52:00,35.7,33.0,30.32,SSE,150,0.0,0.0,89,0.00,,,0.00,0,weatherlink.com 1.10,2013-02-13 09:52:00,
2013-02-13 02:07:00,35.8,33.0,30.32,SSE,150,0.0,1.0,90,0.00,,,0.00,0,weatherlink.com 1.10,2013-02-13 10:07:00,
2013-02-13 02:22:00,34.5,31.0,30.32,SSE,150,0.0,0.0,88,0.00,,,0.00,0,weatherlink.com 1.10,2013-02-13 10:22:00,
2013-02-13 02:37:00,34.0,31.0,30.32,SSE,150,0.0,0.0,89,0.00,,,0.00,0,weatherlink.com 1.10,2013-02-13 10:37:00,
2013-02-13 02:52:00,34.2,32.0,30.32,SSE,150,0.0,0.0,91,0.00,,,0.00,0,weatherlink.com 1.10,2013-02-13 10:52:00,
2013-02-13 03:07:00,34.1,32.0,30.32,SSE,150,0.0,0.0,91,0.00,,,0.00,0,weatherlink.com 1.10,2013-02-13 11:07:00,
2013-02-13 03:22:00,34.1,32.0,30.31,SSE,150,0.0,0.0,91,0.00,,,0.00,0,weatherlink.com 1.10,2013-02-13 11:22:00,
2013-02-13 03:37:00,35.0,33.0,30.31,SSE,150,0.0,0.0,93,0.00,,,0.00,0,weatherlink.com 1.10,2013-02-13 11:37:00,
2013-02-13 03:52:00,34.6,33.0,30.31,SSE,150,0.0,0.0,92,0.00,,,0.00,0,weatherlink.com 1.10,2013-02-13 11:52:00,
2013-02-13 04:07:00,34.2,32.0,30.31,SSE,150,0.0,0.0,92,0.00,,,0.00,0,weatherlink.com 1.10,2013-02-13 12:07:00,
2013-02-13 04:22:00,33.0,31.0,30.31,SSE,150,0.0,0.0,91,0.00,,,0.00,0,weatherlink.com 1.10,2013-02-13 12:22:00,
2013-02-13 04:37:00,33.5,32.0,30.31,SSE,150,0.0,2.0,93,0.00,,,0.00,0,weatherlink.com 1.10,2013-02-13 12:37:00,
2013-02-13 04:52:00,33.9,32.0,30.31,SSE,150,0.0,0.0,93,0.00,,,0.00,0,weatherlink.com 1.10,2013-02-13 12:52:00,
2013-02-13 05:07:00,34.2,32.0,30.31,SSE,150,0.0,1.0,93,0.00,,,0.00,0,weatherlink.com 1.10,2013-02-13 13:07:00,
2013-02-13 05:22:00,34.2,32.0,30.31,SSE,150,0.0,0.0,93,0.00,,,0.00,0,weatherlink.com 1.10,2013-02-13 13:22:00,
2013-02-13 05:37:00,34.0,32.0,30.31,SSE,150,0.0,1.0,93,0.00,,,0.00,0,weatherlink.com 1.10,2013-02-13 13:37:00,
2013-02-13 05:52:00,33.3,31.0,30.31,SSE,150,0.0,1.0,92,0.00,,,0.00,0,weatherlink.com 1.10,2013-02-13 13:52:00,
2013-02-13 06:07:00,33.0,31.0,30.31,SSE,150,0.0,0.0,93,0.00,,,0.00,0,weatherlink.com 1.10,2013-02-13 14:07:00,
2013-02-13 06:22:00,32.8,31.0,30.32,SSE,150,0.0,0.0,93,0.00,,,0.00,0,weatherlink.com 1.10,2013-02-13 14:22:00,
2013-02-13 06:38:00,32.8,31.0,30.32,SSE,150,0.0,0.0,94,0.00,,,0.00,0,weatherlink.com 1.10,2013-02-13 14:38:00,
2013-02-13 06:53:00,33.0,32.0,30.31,SSE,150,0.0,0.0,94,0.00,,,0.00,0,weatherlink.com 1.10,2013-02-13 14:53:00,
2013-02-13 07:08:00,34.2,33.0,30.32,SSE,150,0.0,3.0,94,0.00,,,0.00,11,weatherlink.com 1.10,2013-02-13 15:08:00,
2013-02-13 07:23:00,33.4,32.0,30.33,NW,325,0.0,3.0,93,0.00,,,0.00,25,weatherlink.com 1.10,2013-02-13 15:23:00,
2013-02-13 07:38:00,33.9,32.0,30.33,NW,325,0.0,0.0,94,0.00,,,0.00,56,weatherlink.com 1.10,2013-02-13 15:38:00,
2013-02-13 07:53:00,35.5,34.0,30.33,NW,325,0.0,0.0,95,0.00,,,0.00,95,weatherlink.com 1.10,2013-02-13 15:53:00,
2013-02-13 08:08:00,37.2,36.0,30.34,NW,325,0.0,0.0,95,0.00,,,0.00,144,weatherlink.com 1.10,2013-02-13 16:08:00,
2013-02-13 08:23:00,38.6,37.0,30.34,NW,325,0.0,2.0,94,0.00,,,0.00,192,weatherlink.com 1.10,2013-02-13 16:23:00,
2013-02-13 08:38:00,40.3,39.0,30.34,NW,325,0.0,0.0,93,0.00,,,0.00,234,weatherlink.com 1.10,2013-02-13 16:38:00,
2013-02-13 08:53:00,42.3,39.0,30.34,NW,325,0.0,0.0,89,0.00,,,0.00,274,weatherlink.com 1.10,2013-02-13 16:53:00,
2013-02-13 09:08:00,45.2,40.0,30.34,NW,317,2.0,3.0,82,0.00,,,0.00,315,weatherlink.com 1.10,2013-02-13 17:08:00,
2013-02-13 09:23:00,46.4,41.0,30.33,NE,39,0.0,3.0,80,0.00,,,0.00,353,weatherlink.com 1.10,2013-02-13 17:23:00,
2013-02-13 09:38:00,48.5,41.0,30.34,ENE,67,0.0,0.0,76,0.00,,,0.00,392,weatherlink.com 1.10,2013-02-13 17:38:00,
2013-02-13 09:53:00,49.1,42.0,30.34,WNW,282,3.0,5.0,75,0.00,,,0.00,425,weatherlink.com 1.10,2013-02-13 17:53:00,
2013-02-13 10:08:00,49.9,42.0,30.34,WNW,284,0.0,4.0,73,0.00,,,0.00,454,weatherlink.com 1.10,2013-02-13 18:08:00,
2013-02-13 10:23:00,51.5,42.0,30.34,WNW,290,0.0,4.0,71,0.00,,,0.00,485,weatherlink.com 1.10,2013-02-13 18:23:00,
2013-02-13 10:39:00,52.8,42.0,30.34,WNW,294,0.0,4.0,68,0.00,,,0.00,513,weatherlink.com 1.10,2013-02-13 18:39:00,
2013-02-13 10:54:00,53.7,42.0,30.33,WNW,288,1.0,5.0,66,0.00,,,0.00,533,weatherlink.com 1.10,2013-02-13 18:54:00,
2013-02-13 11:09:00,55.1,43.0,30.33,NW,305,2.0,5.0,64,0.00,,,0.00,552,weatherlink.com 1.10,2013-02-13 19:09:00,
2013-02-13 11:24:00,56.1,43.0,30.32,West,271,2.0,3.0,62,0.00,,,0.00,571,weatherlink.com 1.10,2013-02-13 19:24:00,
2013-02-13 11:39:00,57.8,43.0,30.32,WNW,296,2.0,3.0,59,0.00,,,0.00,587,weatherlink.com 1.10,2013-02-13 19:39:00,
2013-02-13 11:54:00,58.6,43.0,30.31,WNW,292,0.0,4.0,57,0.00,,,0.00,594,weatherlink.com 1.10,2013-02-13 19:54:00,
2013-02-13 12:09:00,59.1,42.0,30.30,NW,304,2.0,6.0,54,0.00,,,0.00,599,weatherlink.com 1.10,2013-02-13 20:09:00,
2013-02-13 12:24:00,59.6,43.0,30.29,WNW,292,1.0,5.0,54,0.00,,,0.00,599,weatherlink.com 1.10,2013-02-13 20:24:00,
2013-02-13 12:39:00,59.7,43.0,30.29,West,259,0.0,7.0,54,0.00,,,0.00,598,weatherlink.com 1.10,2013-02-13 20:39:00,
2013-02-13 12:54:00,60.9,42.0,30.28,NNW,334,4.0,6.0,51,0.00,,,0.00,596,weatherlink.com 1.10,2013-02-13 20:54:00,
2013-02-13 13:09:00,60.8,42.0,30.27,NNE,15,3.0,5.0,50,0.00,,,0.00,584,weatherlink.com 1.10,2013-02-13 21:09:00,
2013-02-13 13:24:00,60.7,42.0,30.26,ESE,113,1.0,4.0,50,0.00,,,0.00,577,weatherlink.com 1.10,2013-02-13 21:24:00,
2013-02-13 13:39:00,61.8,44.0,30.25,NNE,26,6.0,7.0,52,0.00,,,0.00,559,weatherlink.com 1.10,2013-02-13 21:39:00,
2013-02-13 13:54:00,62.2,43.0,30.25,NNE,15,4.0,5.0,50,0.00,,,0.00,538,weatherlink.com 1.10,2013-02-13 21:54:00,
2013-02-13 14:09:00,62.3,42.0,30.24,NNW,340,4.0,5.0,48,0.00,,,0.00,517,weatherlink.com 1.10,2013-02-13 22:09:00,
2013-02-13 14:24:00,62.6,42.0,30.23,North,360,0.0,8.0,47,0.00,,,0.00,492,weatherlink.com 1.10,2013-02-13 22:24:00,
2013-02-13 14:39:00,62.8,43.0,30.23,NNE,28,2.0,5.0,48,0.00,,,0.00,369,weatherlink.com 1.10,2013-02-13 22:39:00,
2013-02-13 14:54:00,63.0,41.0,30.23,WNW,294,1.0,5.0,45,0.00,,,0.00,436,weatherlink.com 1.10,2013-02-13 22:54:00,
2013-02-13 15:09:00,63.8,41.0,30.22,NNE,14,1.0,3.0,43,0.00,,,0.00,401,weatherlink.com 1.10,2013-02-13 23:09:00,
2013-02-13 15:40:00,64.3,40.0,30.21,NNE,32,2.0,5.0,41,0.00,,,0.00,329,weatherlink.com 1.10,2013-02-13 23:40:00,
2013-02-13 16:10:00,64.2,41.0,30.21,NE,42,3.0,3.0,43,0.00,,,0.00,211,weatherlink.com 1.10,2013-02-14 00:10:00,
2013-02-13 16:25:00,64.3,41.0,30.21,NE,42,2.0,3.0,42,0.00,,,0.00,142,weatherlink.com 1.10,2013-02-14 00:25:00,
2013-02-13 16:40:00,64.0,40.0,30.20,NE,41,0.0,2.0,41,0.00,,,0.00,128,weatherlink.com 1.10,2013-02-14 00:40:00,
2013-02-13 16:55:00,63.8,39.0,30.20,NE,41,0.0,0.0,40,0.00,,,0.00,72,weatherlink.com 1.10,2013-02-14 00:55:00,
2013-02-13 17:10:00,63.5,40.0,30.20,NE,42,0.0,1.0,42,0.00,,,0.00,51,weatherlink.com 1.10,2013-02-14 01:10:00,
2013-02-13 17:25:00,62.2,42.0,30.20,NW,310,1.0,3.0,48,0.00,,,0.00,14,weatherlink.com 1.10,2013-02-14 01:25:00,
2013-02-13 17:40:00,60.4,43.0,30.20,WNW,289,2.0,5.0,53,0.00,,,0.00,7,weatherlink.com 1.10,2013-02-14 01:40:00,
2013-02-13 17:55:00,58.7,43.0,30.20,WNW,289,0.0,3.0,57,0.00,,,0.00,0,weatherlink.com 1.10,2013-02-14 01:55:00,
2013-02-13 18:10:00,57.0,43.0,30.20,WNW,289,0.0,0.0,60,0.00,,,0.00,0,weatherlink.com 1.10,2013-02-14 02:10:00,
2013-02-13 18:25:00,55.0,42.0,30.20,WNW,289,0.0,1.0,63,0.00,,,0.00,0,weatherlink.com 1.10,2013-02-14 02:25:00,
2013-02-13 18:40:00,53.7,42.0,30.20,WNW,289,0.0,0.0,65,0.00,,,0.00,0,weatherlink.com 1.10,2013-02-14 02:40:00,
2013-02-13 18:55:00,52.3,42.0,30.20,WNW,289,0.0,0.0,67,0.00,,,0.00,0,weatherlink.com 1.10,2013-02-14 02:55:00,
2013-02-13 19:10:00,50.9,41.0,30.20,WNW,289,0.0,0.0,70,0.00,,,0.00,0,weatherlink.com 1.10,2013-02-14 03:10:00,
2013-02-13 19:25:00,49.9,43.0,30.20,WNW,289,0.0,0.0,76,0.00,,,0.00,0,weatherlink.com 1.10,2013-02-14 03:25:00,
2013-02-13 19:40:00,48.6,41.0,30.21,WNW,289,3.0,3.0,76,0.00,,,0.00,0,weatherlink.com 1.10,2013-02-14 03:40:00,
2013-02-13 19:55:00,49.3,41.0,30.21,West,277,0.0,2.0,73,0.00,,,0.00,0,weatherlink.com 1.10,2013-02-14 03:55:00,
2013-02-13 20:10:00,49.0,40.0,30.20,West,277,0.0,0.0,72,0.00,,,0.00,0,weatherlink.com 1.10,2013-02-14 04:10:00,
2013-02-13 20:40:00,46.6,39.0,30.21,West,277,0.0,0.0,76,0.00,,,0.00,0,weatherlink.com 1.10,2013-02-14 04:40:00,
2013-02-13 21:09:00,45.1,40.0,30.21,West,277,0.0,0.0,82,0.00,,,0.00,0,weatherlink.com 1.10,2013-02-14 05:09:00,
2013-02-13 21:24:00,44.0,39.0,30.21,West,277,0.0,0.0,81,0.00,,,0.00,0,weatherlink.com 1.10,2013-02-14 05:24:00,
2013-02-13 21:39:00,43.2,38.0,30.21,West,278,3.0,4.0,83,0.00,,,0.00,0,weatherlink.com 1.10,2013-02-14 05:39:00,
2013-02-13 21:54:00,43.4,39.0,30.21,West,278,2.0,3.0,83,0.00,,,0.00,0,weatherlink.com 1.10,2013-02-14 05:54:00,
2013-02-13 22:09:00,44.0,39.0,30.21,West,278,0.0,0.0,82,0.00,,,0.00,0,weatherlink.com 1.10,2013-02-14 06:09:00,
2013-02-13 22:24:00,42.6,37.0,30.22,West,278,0.0,0.0,80,0.00,,,0.00,0,weatherlink.com 1.10,2013-02-14 06:24:00,
2013-02-13 22:39:00,41.8,38.0,30.22,West,278,0.0,1.0,85,0.00,,,0.00,0,weatherlink.com 1.10,2013-02-14 06:39:00,
2013-02-13 22:54:00,42.2,39.0,30.22,West,278,1.0,2.0,87,0.00,,,0.00,0,weatherlink.com 1.10,2013-02-14 06:54:00,
2013-02-13 23:09:00,42.2,38.0,30.22,West,278,0.0,0.0,85,0.00,,,0.00,0,weatherlink.com 1.10,2013-02-14 07:09:00,
2013-02-13 23:24:00,41.3,38.0,30.23,West,278,1.0,2.0,87,0.00,,,0.00,0,weatherlink.com 1.10,2013-02-14 07:24:00,
2013-02-13 23:39:00,41.9,39.0,30.23,West,278,0.0,2.0,89,0.00,,,0.00,0,weatherlink.com 1.10,2013-02-14 07:39:00,
2013-02-13 23:54:00,41.8,39.0,30.22,West,278,0.0,1.0,89,0.00,,,0.00,0,weatherlink.com 1.10,2013-02-14 07:54:00,